createdAt,value
2019-04-01T00:23:39.548Z,13.67
2019-04-01T00:26:09.494Z,14.00
2019-04-01T00:28:39.027Z,13.00
2019-04-01T00:31:08.874Z,12.23
2019-04-01T00:33:38.812Z,11.63
2019-04-01T00:36:08.686Z,11.70
2019-04-01T00:38:38.307Z,13.20
2019-04-01T00:41:08.210Z,11.90
2019-04-01T00:43:55.342Z,11.93
2019-04-01T00:46:25.436Z,12.03
2019-04-01T00:48:55.269Z,17.57
2019-04-01T00:51:25.332Z,15.30
2019-04-01T00:53:54.996Z,18.73
2019-04-01T00:56:24.935Z,17.57
2019-04-01T00:58:56.006Z,15.03
2019-04-01T01:01:25.877Z,13.53
2019-04-01T01:03:55.794Z,14.63
2019-04-01T01:06:25.516Z,14.63
2019-04-01T01:08:56.386Z,13.73
2019-04-01T01:11:26.164Z,12.73
2019-04-01T01:13:55.971Z,12.40
2019-04-01T01:16:25.862Z,12.13
2019-04-01T01:18:55.499Z,11.57
2019-04-01T01:21:25.335Z,11.67
2019-04-01T02:25:27.763Z,10.03
2019-04-01T02:27:57.506Z,8.93
2019-04-01T02:30:27.409Z,8.37
2019-04-01T02:32:57.124Z,7.83
2019-04-01T02:35:27.062Z,7.83
2019-04-01T02:37:56.954Z,7.57
2019-04-01T02:40:27.043Z,7.57
2019-04-01T02:42:58.503Z,8.07
2019-04-01T02:45:28.459Z,7.80
2019-04-01T02:47:58.223Z,7.53
2019-04-01T02:50:28.138Z,8.73
2019-04-01T02:52:57.956Z,8.73
2019-04-01T02:55:27.914Z,9.33
2019-04-01T02:57:57.699Z,8.60
2019-04-01T03:00:27.464Z,8.90
2019-04-01T03:02:57.319Z,8.43
2019-04-01T03:05:26.937Z,8.60
2019-04-01T03:07:56.699Z,7.70
2019-04-01T03:10:26.717Z,8.00
2019-04-01T03:12:56.588Z,8.93
2019-04-01T03:15:26.384Z,8.23
2019-04-01T03:17:56.348Z,8.20
2019-04-01T03:20:26.115Z,8.83
2019-04-01T03:22:55.846Z,8.03
2019-04-01T04:23:50.739Z,9.43
2019-04-01T04:26:20.849Z,9.13
2019-04-01T04:28:50.633Z,8.13
2019-04-01T04:31:20.650Z,8.93
2019-04-01T04:33:50.437Z,8.87
2019-04-01T04:36:20.163Z,8.93
2019-04-01T04:38:51.124Z,8.40
2019-04-01T04:41:20.905Z,8.03
2019-04-01T04:43:50.937Z,7.83
2019-04-01T04:46:21.446Z,9.30
2019-04-01T04:48:51.282Z,9.67
2019-04-01T04:51:21.078Z,10.30
2019-04-01T04:53:50.944Z,11.63
2019-04-01T04:56:20.620Z,11.90
2019-04-01T04:58:50.462Z,11.73
2019-04-01T05:01:20.244Z,12.23
2019-04-01T05:03:49.961Z,11.33
2019-04-01T05:06:19.701Z,12.30
2019-04-01T05:08:49.380Z,11.57
2019-04-01T05:11:19.254Z,12.00
2019-04-01T05:13:49.054Z,11.13
2019-04-01T05:16:18.829Z,11.97
2019-04-01T05:18:48.837Z,12.00
2019-04-01T05:21:19.001Z,12.17
2019-04-01T06:23:40.381Z,24.93
2019-04-01T06:26:10.433Z,28.97
2019-04-01T06:28:40.214Z,27.97
2019-04-01T06:31:10.076Z,23.97
2019-04-01T06:33:39.790Z,17.77
2019-04-01T06:36:10.985Z,15.87
2019-04-01T06:38:41.051Z,18.13
2019-04-01T06:41:10.884Z,17.57
2019-04-01T06:43:40.937Z,21.77
2019-04-01T06:46:10.705Z,24.33
2019-04-01T06:48:40.511Z,21.27
2019-04-01T06:51:10.227Z,22.00
2019-04-01T06:53:39.736Z,23.73
2019-04-01T06:56:09.710Z,25.47
2019-04-01T06:58:39.378Z,26.53
2019-04-01T07:01:09.208Z,25.57
2019-04-01T07:03:39.253Z,20.30
2019-04-01T07:06:09.019Z,18.57
2019-04-01T07:08:38.725Z,15.37
2019-04-01T07:11:09.993Z,12.27
2019-04-01T07:13:40.280Z,11.47
2019-04-01T07:16:15.708Z,10.13
2019-04-01T07:18:41.710Z,10.43
2019-04-01T07:21:11.716Z,11.40
2019-04-01T07:48:27.738Z,17.20
2019-04-01T07:50:57.496Z,16.27
2019-04-01T07:53:27.652Z,15.57
2019-04-01T07:55:57.864Z,18.23
2019-04-01T07:58:29.184Z,14.80
2019-04-01T08:00:59.299Z,17.83
2019-04-01T08:03:31.476Z,17.23
2019-04-01T08:06:01.394Z,17.97
2019-04-01T08:08:31.199Z,14.30
2019-04-01T08:11:01.290Z,13.43
2019-04-01T08:13:31.455Z,14.57
2019-04-01T08:16:01.262Z,13.13
2019-04-01T08:18:33.965Z,18.87
2019-04-01T08:21:02.876Z,15.30
2019-04-01T08:23:35.745Z,15.00
2019-04-01T08:26:05.534Z,15.77
2019-04-01T08:28:35.385Z,15.27
2019-04-01T08:31:05.287Z,14.60
2019-04-01T08:33:35.209Z,14.73
2019-04-01T08:36:06.265Z,37.23
2019-04-01T08:38:36.345Z,14.53
2019-04-01T08:41:06.204Z,15.73
2019-04-01T08:43:36.094Z,12.43
2019-04-01T08:46:06.188Z,13.07
2019-04-01T08:48:36.658Z,11.80
2019-04-01T08:51:06.365Z,14.47
2019-04-01T08:53:36.444Z,17.77
2019-04-01T08:56:06.501Z,27.57
2019-04-01T08:58:36.408Z,17.73
2019-04-01T09:01:06.568Z,10.90
2019-04-01T09:03:36.326Z,9.03
2019-04-01T09:06:06.039Z,6.87
2019-04-01T09:08:36.097Z,9.07
2019-04-01T09:11:06.001Z,7.47
2019-04-01T09:13:35.994Z,6.80
2019-04-01T09:16:05.807Z,5.07
2019-04-01T09:18:35.631Z,4.80
2019-04-01T09:21:05.510Z,6.20
2019-04-01T10:24:52.065Z,5.60
2019-04-01T10:27:21.882Z,5.80
2019-04-01T10:29:51.761Z,5.67
2019-04-01T10:32:21.779Z,6.03
2019-04-01T10:34:51.618Z,5.80
2019-04-01T10:37:21.377Z,6.63
2019-04-01T10:39:51.148Z,6.20
2019-04-01T10:42:20.824Z,6.33
2019-04-01T10:44:50.543Z,5.83
2019-04-01T10:47:20.400Z,5.80
2019-04-01T10:49:50.087Z,6.43
2019-04-01T10:52:19.971Z,5.53
2019-04-01T10:54:49.773Z,5.77
2019-04-01T10:57:19.622Z,5.93
2019-04-01T10:59:49.740Z,6.00
2019-04-01T11:02:19.737Z,5.87
2019-04-01T11:04:49.611Z,6.00
2019-04-01T11:07:20.558Z,5.93
2019-04-01T11:09:50.580Z,5.50
2019-04-01T11:12:20.215Z,8.03
2019-04-01T11:14:50.240Z,6.47
2019-04-01T11:17:19.949Z,6.20
2019-04-01T11:19:50.586Z,6.00
2019-04-01T11:22:20.242Z,6.30
2019-04-01T12:24:37.243Z,5.67
2019-04-01T12:27:06.974Z,5.70
2019-04-01T12:29:36.976Z,5.17
2019-04-01T12:32:06.724Z,4.80
2019-04-01T12:34:36.647Z,5.60
2019-04-01T12:37:06.373Z,5.10
2019-04-01T12:39:36.145Z,5.70
2019-04-01T12:42:05.964Z,5.50
2019-04-01T12:44:35.819Z,5.33
2019-04-01T12:47:05.791Z,5.70
2019-04-01T12:49:35.732Z,5.90
2019-04-01T12:52:05.598Z,5.57
2019-04-01T12:54:35.558Z,5.80
2019-04-01T12:57:05.408Z,5.37
2019-04-01T12:59:35.403Z,5.40
2019-04-01T13:02:05.507Z,5.30
2019-04-01T13:04:36.165Z,5.33
2019-04-01T13:07:06.206Z,5.43
2019-04-01T13:09:36.037Z,5.43
2019-04-01T13:12:06.084Z,5.53
2019-04-01T13:14:35.873Z,5.83
2019-04-01T13:17:05.729Z,8.93
2019-04-01T13:19:35.479Z,7.03
2019-04-01T13:22:05.304Z,19.50
2019-04-01T14:24:07.687Z,6.90
2019-04-01T14:26:37.495Z,6.60
2019-04-01T14:29:07.413Z,6.57
2019-04-01T14:31:37.327Z,6.53
2019-04-01T14:34:13.122Z,5.90
2019-04-01T14:36:38.793Z,6.10
2019-04-01T14:39:08.958Z,6.33
2019-04-01T14:41:38.722Z,6.43
2019-04-01T14:44:08.336Z,6.73
2019-04-01T14:46:38.185Z,6.03
2019-04-01T14:49:08.167Z,6.50
2019-04-01T14:51:38.023Z,6.30
2019-04-01T14:54:09.354Z,6.43
2019-04-01T14:56:39.199Z,7.97
2019-04-01T14:59:08.983Z,7.60
2019-04-01T15:01:38.723Z,6.50
2019-04-01T15:04:08.595Z,6.67
2019-04-01T15:06:38.502Z,6.73
2019-04-01T15:09:09.151Z,6.50
2019-04-01T15:11:38.953Z,6.20
2019-04-01T15:14:08.970Z,6.57
2019-04-01T15:16:38.837Z,6.77
2019-04-01T15:19:11.132Z,8.27
2019-04-01T15:21:40.305Z,7.77
2019-04-01T16:23:59.807Z,8.57
2019-04-01T16:26:29.862Z,10.10
2019-04-01T16:28:59.649Z,12.23
2019-04-01T16:31:29.532Z,9.17
2019-04-01T16:33:59.396Z,9.27
2019-04-01T16:36:29.393Z,8.80
2019-04-01T16:38:59.178Z,9.00
2019-04-01T16:41:30.344Z,10.03
2019-04-01T16:44:00.143Z,9.70
2019-04-01T16:46:30.068Z,11.33
2019-04-01T16:48:59.942Z,9.30
2019-04-01T16:51:29.749Z,8.83
2019-04-01T16:53:59.625Z,8.83
2019-04-01T16:56:29.542Z,8.67
2019-04-01T16:58:59.958Z,8.97
2019-04-01T17:01:29.664Z,8.87
2019-04-01T17:03:59.637Z,8.97
2019-04-01T17:06:29.516Z,9.47
2019-04-01T17:08:59.428Z,9.10
2019-04-01T17:11:30.895Z,12.20
2019-04-01T17:14:00.687Z,16.17
2019-04-01T17:16:30.525Z,11.57
2019-04-01T17:19:00.493Z,12.23
2019-04-01T17:21:30.329Z,12.40
2019-04-01T17:54:39.910Z,10.13
2019-04-01T17:57:09.937Z,11.23
2019-04-01T17:59:39.852Z,10.07
2019-04-01T18:02:13.718Z,10.57
2019-04-01T18:04:43.516Z,11.27
2019-04-01T18:07:13.399Z,11.30
2019-04-01T18:09:43.309Z,12.70
2019-04-01T18:12:13.120Z,11.73
2019-04-01T18:14:43.022Z,13.20
2019-04-01T18:17:14.183Z,9.50
2019-04-01T18:19:43.986Z,9.37
2019-04-01T18:22:13.902Z,25.60
2019-04-01T18:24:43.791Z,13.03
2019-04-01T18:27:14.947Z,9.57
2019-04-01T18:29:45.119Z,9.83
2019-04-01T18:32:14.967Z,9.73
2019-04-01T18:34:44.873Z,9.60
2019-04-01T18:37:14.756Z,9.97
2019-04-01T18:39:48.394Z,11.47
2019-04-01T18:42:16.311Z,11.13
2019-04-01T18:44:46.242Z,10.23
2019-04-01T18:47:17.218Z,12.57
2019-04-01T18:49:47.047Z,11.57
2019-04-01T18:52:17.024Z,13.00
2019-04-01T18:54:46.830Z,11.77
2019-04-01T18:57:16.794Z,12.13
2019-04-01T18:59:46.538Z,10.47
2019-04-01T19:02:16.254Z,9.30
2019-04-01T19:04:46.017Z,10.87
2019-04-01T19:07:15.785Z,9.47
2019-04-01T19:09:45.590Z,10.23
2019-04-01T19:12:15.465Z,9.00
2019-04-01T19:14:45.239Z,10.10
2019-04-01T19:17:15.016Z,10.10
2019-04-01T19:19:44.819Z,9.43
2019-04-01T19:22:14.699Z,10.90
2019-04-01T20:16:30.695Z,8.97
2019-04-01T20:19:00.473Z,8.50
2019-04-01T20:21:30.279Z,9.83
2019-04-01T20:24:00.146Z,8.27
2019-04-01T20:26:29.912Z,9.80
2019-04-01T20:28:59.724Z,9.60
2019-04-01T20:31:29.570Z,10.27
2019-04-01T20:33:59.455Z,9.93
2019-04-01T20:36:31.258Z,11.60
2019-04-01T20:39:01.045Z,10.17
2019-04-01T20:41:30.843Z,15.07
2019-04-01T20:44:00.688Z,15.43
2019-04-01T20:46:30.416Z,20.83
2019-04-01T20:49:00.186Z,21.03
2019-04-01T20:51:30.321Z,19.07
2019-04-01T20:54:00.404Z,19.43
2019-04-01T20:56:30.258Z,19.07
2019-04-01T20:59:00.094Z,18.67
2019-04-01T21:01:30.004Z,17.03
2019-04-01T21:03:59.950Z,17.10
2019-04-01T21:06:29.708Z,15.93
2019-04-01T21:08:59.542Z,16.37
2019-04-01T21:11:29.383Z,16.30
2019-04-01T21:13:59.165Z,16.47
2019-04-01T21:16:28.974Z,17.70
2019-04-01T21:18:58.823Z,17.50
2019-04-01T21:21:28.582Z,16.27
2019-04-01T22:25:28.000Z,16.90
2019-04-01T22:27:58.311Z,16.50
2019-04-01T22:30:28.098Z,15.77
2019-04-01T22:32:57.831Z,17.17
2019-04-01T22:35:38.025Z,21.87
2019-04-01T22:38:03.379Z,42.00
2019-04-01T22:40:32.303Z,21.10
2019-04-01T22:43:02.038Z,21.93
2019-04-01T22:45:31.889Z,19.70
2019-04-01T22:48:01.830Z,21.27
2019-04-01T22:50:31.640Z,20.30
2019-04-01T22:53:01.428Z,26.57
2019-04-01T22:55:31.412Z,31.47
2019-04-01T22:58:01.273Z,27.67
2019-04-01T23:00:31.207Z,25.33
2019-04-01T23:03:01.185Z,20.90
2019-04-01T23:05:31.036Z,27.60
2019-04-01T23:08:02.185Z,33.93
2019-04-01T23:10:32.331Z,31.00
2019-04-01T23:13:02.102Z,28.43
2019-04-01T23:15:31.882Z,28.63
2019-04-01T23:18:01.620Z,20.53
2019-04-01T23:20:33.310Z,21.67
2019-04-01T23:23:03.044Z,53.83
